sensor_id;sensor_type;location;lat;lon;timestamp;P1;durP1;ratioP1;P2;durP2;ratioP2
11427;SDS011;5770;44.504;11.346;2023-03-01T00:00:11;20.00;;;15.25;;
11427;SDS011;5770;44.504;11.346;2023-03-01T00:02:38;18.80;;;15.13;;
11427;SDS011;5770;44.504;11.346;2023-03-01T00:05:06;19.88;;;14.70;;
11427;SDS011;5770;44.504;11.346;2023-03-01T00:07:35;22.65;;;15.52;;
11427;SDS011;5770;44.504;11.346;2023-03-01T00:10:02;26.40;;;15.73;;
11427;SDS011;5770;44.504;11.346;2023-03-01T00:12:30;26.92;;;16.10;;
11427;SDS011;5770;44.504;11.346;2023-03-01T00:14:57;35.35;;;16.38;;
11427;SDS011;5770;44.504;11.346;2023-03-01T00:17:24;22.65;;;16.40;;
11427;SDS011;5770;44.504;11.346;2023-03-01T00:19:53;26.13;;;14.85;;
11427;SDS011;5770;44.504;11.346;2023-03-01T00:22:20;20.13;;;15.30;;
11427;SDS011;5770;44.504;11.346;2023-03-01T00:24:49;20.52;;;15.63;;
11427;SDS011;5770;44.504;11.346;2023-03-01T00:27:16;19.17;;;14.77;;
11427;SDS011;5770;44.504;11.346;2023-03-01T00:29:43;17.20;;;14.30;;
11427;SDS011;5770;44.504;11.346;2023-03-01T00:32:10;17.08;;;15.07;;
11427;SDS011;5770;44.504;11.346;2023-03-01T00:34:37;21.52;;;14.45;;
11427;SDS011;5770;44.504;11.346;2023-03-01T00:37:05;21.63;;;15.48;;
11427;SDS011;5770;44.504;11.346;2023-03-01T00:39:32;21.88;;;15.15;;
11427;SDS011;5770;44.504;11.346;2023-03-01T00:42:00;18.45;;;15.07;;
11427;SDS011;5770;44.504;11.346;2023-03-01T00:44:27;21.80;;;15.20;;
11427;SDS011;5770;44.504;11.346;2023-03-01T00:46:54;22.17;;;14.40;;
11427;SDS011;5770;44.504;11.346;2023-03-01T00:49:21;19.15;;;14.23;;
11427;SDS011;5770;44.504;11.346;2023-03-01T00:51:52;23.20;;;18.60;;
11427;SDS011;5770;44.504;11.346;2023-03-01T00:54:20;17.77;;;14.95;;
11427;SDS011;5770;44.504;11.346;2023-03-01T00:56:46;18.60;;;15.60;;
11427;SDS011;5770;44.504;11.346;2023-03-01T00:59:15;17.20;;;14.35;;
11427;SDS011;5770;44.504;11.346;2023-03-01T01:01:42;18.02;;;14.63;;
11427;SDS011;5770;44.504;11.346;2023-03-01T01:04:10;16.73;;;14.93;;
11427;SDS011;5770;44.504;11.346;2023-03-01T01:06:38;20.10;;;15.50;;
11427;SDS011;5770;44.504;11.346;2023-03-01T01:09:08;17.20;;;14.23;;
11427;SDS011;5770;44.504;11.346;2023-03-01T01:11:42;18.50;;;15.30;;
11427;SDS011;5770;44.504;11.346;2023-03-01T01:14:10;20.70;;;15.40;;
11427;SDS011;5770;44.504;11.346;2023-03-01T01:16:38;18.00;;;14.57;;
11427;SDS011;5770;44.504;11.346;2023-03-01T01:19:05;18.80;;;15.35;;
11427;SDS011;5770;44.504;11.346;2023-03-01T01:21:33;22.08;;;14.30;;
11427;SDS011;5770;44.504;11.346;2023-03-01T01:24:02;17.65;;;14.70;;
11427;SDS011;5770;44.504;11.346;2023-03-01T01:26:31;16.08;;;13.63;;
11427;SDS011;5770;44.504;11.346;2023-03-01T01:28:59;17.83;;;14.60;;
11427;SDS011;5770;44.504;11.346;2023-03-01T01:31:26;19.00;;;15.25;;
11427;SDS011;5770;44.504;11.346;2023-03-01T01:33:55;19.88;;;14.48;;
11427;SDS011;5770;44.504;11.346;2023-03-01T01:36:23;18.27;;;14.40;;
11427;SDS011;5770;44.504;11.346;2023-03-01T01:38:50;21.70;;;14.60;;
11427;SDS011;5770;44.504;11.346;2023-03-01T01:41:17;16.52;;;14.80;;
11427;SDS011;5770;44.504;11.346;2023-03-01T01:43:45;16.50;;;14.73;;
11427;SDS011;5770;44.504;11.346;2023-03-01T01:46:15;18.38;;;14.68;;
11427;SDS011;5770;44.504;11.346;2023-03-01T01:48:44;18.27;;;15.30;;
11427;SDS011;5770;44.504;11.346;2023-03-01T01:51:16;19.95;;;15.18;;
11427;SDS011;5770;44.504;11.346;2023-03-01T01:53:45;18.85;;;15.32;;
11427;SDS011;5770;44.504;11.346;2023-03-01T01:56:15;19.33;;;15.35;;
11427;SDS011;5770;44.504;11.346;2023-03-01T01:58:44;23.33;;;15.10;;
11427;SDS011;5770;44.504;11.346;2023-03-01T02:01:13;17.45;;;14.82;;
11427;SDS011;5770;44.504;11.346;2023-03-01T02:03:40;20.17;;;14.85;;
11427;SDS011;5770;44.504;11.346;2023-03-01T02:06:12;18.30;;;15.27;;
11427;SDS011;5770;44.504;11.346;2023-03-01T02:08:41;16.52;;;14.70;;
11427;SDS011;5770;44.504;11.346;2023-03-01T02:11:09;20.48;;;15.07;;
11427;SDS011;5770;44.504;11.346;2023-03-01T02:13:39;18.70;;;15.30;;
11427;SDS011;5770;44.504;11.346;2023-03-01T02:16:08;20.52;;;14.25;;
11427;SDS011;5770;44.504;11.346;2023-03-01T02:18:36;18.98;;;15.05;;
11427;SDS011;5770;44.504;11.346;2023-03-01T02:21:17;19.30;;;14.57;;
11427;SDS011;5770;44.504;11.346;2023-03-01T02:23:56;18.83;;;14.57;;
11427;SDS011;5770;44.504;11.346;2023-03-01T02:26:28;19.88;;;15.52;;
11427;SDS011;5770;44.504;11.346;2023-03-01T02:28:58;16.52;;;14.60;;
11427;SDS011;5770;44.504;11.346;2023-03-01T02:31:25;16.10;;;14.43;;
11427;SDS011;5770;44.504;11.346;2023-03-01T02:34:08;22.25;;;14.73;;
11427;SDS011;5770;44.504;11.346;2023-03-01T02:36:38;17.35;;;14.38;;
11427;SDS011;5770;44.504;11.346;2023-03-01T02:39:12;18.45;;;14.90;;
11427;SDS011;5770;44.504;11.346;2023-03-01T02:41:44;19.38;;;14.52;;
11427;SDS011;5770;44.504;11.346;2023-03-01T02:44:15;18.73;;;13.95;;
11427;SDS011;5770;44.504;11.346;2023-03-01T02:46:43;18.48;;;14.15;;
11427;SDS011;5770;44.504;11.346;2023-03-01T02:49:23;18.02;;;14.10;;
11427;SDS011;5770;44.504;11.346;2023-03-01T02:54:56;16.38;;;14.15;;
11427;SDS011;5770;44.504;11.346;2023-03-01T02:57:26;17.67;;;14.50;;
11427;SDS011;5770;44.504;11.346;2023-03-01T02:59:55;17.52;;;14.10;;
11427;SDS011;5770;44.504;11.346;2023-03-01T03:02:26;15.80;;;14.13;;
11427;SDS011;5770;44.504;11.346;2023-03-01T03:05:05;17.00;;;14.65;;
11427;SDS011;5770;44.504;11.346;2023-03-01T03:07:35;22.77;;;14.80;;
11427;SDS011;5770;44.504;11.346;2023-03-01T03:10:03;15.35;;;13.77;;
11427;SDS011;5770;44.504;11.346;2023-03-01T03:12:30;16.17;;;14.38;;
11427;SDS011;5770;44.504;11.346;2023-03-01T03:14:59;17.92;;;14.55;;
11427;SDS011;5770;44.504;11.346;2023-03-01T03:17:26;16.67;;;14.48;;
11427;SDS011;5770;44.504;11.346;2023-03-01T03:19:53;18.55;;;14.35;;
11427;SDS011;5770;44.504;11.346;2023-03-01T03:22:20;17.83;;;14.50;;
11427;SDS011;5770;44.504;11.346;2023-03-01T03:24:47;19.73;;;15.63;;
11427;SDS011;5770;44.504;11.346;2023-03-01T03:27:14;18.30;;;14.60;;
11427;SDS011;5770;44.504;11.346;2023-03-01T03:29:41;18.15;;;15.05;;
11427;SDS011;5770;44.504;11.346;2023-03-01T03:32:09;17.23;;;15.38;;
11427;SDS011;5770;44.504;11.346;2023-03-01T03:34:36;17.27;;;14.70;;
11427;SDS011;5770;44.504;11.346;2023-03-01T03:37:03;17.23;;;14.50;;
11427;SDS011;5770;44.504;11.346;2023-03-01T03:39:51;16.73;;;14.00;;
11427;SDS011;5770;44.504;11.346;2023-03-01T03:42:20;17.48;;;14.27;;
11427;SDS011;5770;44.504;11.346;2023-03-01T03:44:47;17.45;;;14.45;;
11427;SDS011;5770;44.504;11.346;2023-03-01T03:47:16;16.63;;;14.85;;
11427;SDS011;5770;44.504;11.346;2023-03-01T03:49:43;18.35;;;15.10;;
11427;SDS011;5770;44.504;11.346;2023-03-01T03:52:10;16.85;;;14.63;;
11427;SDS011;5770;44.504;11.346;2023-03-01T03:54:38;16.13;;;14.25;;
11427;SDS011;5770;44.504;11.346;2023-03-01T03:57:06;18.80;;;14.18;;
11427;SDS011;5770;44.504;11.346;2023-03-01T03:59:33;17.33;;;15.05;;
11427;SDS011;5770;44.504;11.346;2023-03-01T04:02:00;15.82;;;14.20;;
11427;SDS011;5770;44.504;11.346;2023-03-01T04:04:28;16.73;;;14.63;;
11427;SDS011;5770;44.504;11.346;2023-03-01T04:06:55;15.95;;;14.25;;
11427;SDS011;5770;44.504;11.346;2023-03-01T04:09:22;16.83;;;15.15;;
11427;SDS011;5770;44.504;11.346;2023-03-01T04:11:49;16.23;;;14.52;;
11427;SDS011;5770;44.504;11.346;2023-03-01T04:14:17;19.63;;;15.27;;
11427;SDS011;5770;44.504;11.346;2023-03-01T04:16:44;16.73;;;14.75;;
11427;SDS011;5770;44.504;11.346;2023-03-01T04:19:10;19.60;;;15.07;;
11427;SDS011;5770;44.504;11.346;2023-03-01T04:21:41;18.23;;;15.20;;
11427;SDS011;5770;44.504;11.346;2023-03-01T04:24:08;17.80;;;14.52;;
11427;SDS011;5770;44.504;11.346;2023-03-01T04:26:36;21.00;;;15.43;;
11427;SDS011;5770;44.504;11.346;2023-03-01T04:29:03;17.95;;;15.23;;
11427;SDS011;5770;44.504;11.346;2023-03-01T04:31:30;19.08;;;15.65;;
11427;SDS011;5770;44.504;11.346;2023-03-01T04:33:58;19.50;;;15.13;;
11427;SDS011;5770;44.504;11.346;2023-03-01T04:36:26;17.50;;;15.30;;
11427;SDS011;5770;44.504;11.346;2023-03-01T04:38:55;19.88;;;15.77;;
11427;SDS011;5770;44.504;11.346;2023-03-01T04:41:23;16.92;;;15.07;;
11427;SDS011;5770;44.504;11.346;2023-03-01T04:43:50;19.58;;;14.98;;
11427;SDS011;5770;44.504;11.346;2023-03-01T04:46:18;18.63;;;15.43;;
11427;SDS011;5770;44.504;11.346;2023-03-01T04:48:46;17.77;;;15.52;;
11427;SDS011;5770;44.504;11.346;2023-03-01T04:51:13;17.80;;;15.27;;
11427;SDS011;5770;44.504;11.346;2023-03-01T04:53:41;16.85;;;14.82;;
11427;SDS011;5770;44.504;11.346;2023-03-01T04:56:09;17.50;;;15.35;;
11427;SDS011;5770;44.504;11.346;2023-03-01T04:58:39;17.35;;;15.55;;
11427;SDS011;5770;44.504;11.346;2023-03-01T05:01:09;18.38;;;15.90;;
11427;SDS011;5770;44.504;11.346;2023-03-01T05:03:40;16.83;;;15.02;;
11427;SDS011;5770;44.504;11.346;2023-03-01T05:06:08;16.65;;;14.88;;
11427;SDS011;5770;44.504;11.346;2023-03-01T05:08:36;17.33;;;15.43;;
11427;SDS011;5770;44.504;11.346;2023-03-01T05:11:03;18.77;;;16.65;;
11427;SDS011;5770;44.504;11.346;2023-03-01T05:13:35;19.48;;;15.43;;
11427;SDS011;5770;44.504;11.346;2023-03-01T05:16:03;19.27;;;15.65;;
11427;SDS011;5770;44.504;11.346;2023-03-01T05:18:32;17.67;;;15.85;;
11427;SDS011;5770;44.504;11.346;2023-03-01T05:21:01;20.85;;;16.77;;
11427;SDS011;5770;44.504;11.346;2023-03-01T05:23:31;18.27;;;15.27;;
11427;SDS011;5770;44.504;11.346;2023-03-01T05:25:59;17.20;;;15.30;;
11427;SDS011;5770;44.504;11.346;2023-03-01T05:28:26;20.15;;;15.57;;
11427;SDS011;5770;44.504;11.346;2023-03-01T05:30:56;18.48;;;16.48;;
11427;SDS011;5770;44.504;11.346;2023-03-01T05:33:23;20.52;;;15.93;;
11427;SDS011;5770;44.504;11.346;2023-03-01T05:35:51;18.65;;;15.25;;
11427;SDS011;5770;44.504;11.346;2023-03-01T05:38:18;18.95;;;16.38;;
11427;SDS011;5770;44.504;11.346;2023-03-01T05:40:48;19.25;;;16.27;;
11427;SDS011;5770;44.504;11.346;2023-03-01T05:43:15;18.95;;;15.82;;
11427;SDS011;5770;44.504;11.346;2023-03-01T05:45:43;18.27;;;15.82;;
11427;SDS011;5770;44.504;11.346;2023-03-01T05:48:12;19.75;;;17.15;;
11427;SDS011;5770;44.504;11.346;2023-03-01T05:50:40;18.58;;;16.58;;
11427;SDS011;5770;44.504;11.346;2023-03-01T05:53:09;18.58;;;15.45;;
11427;SDS011;5770;44.504;11.346;2023-03-01T05:55:37;19.75;;;16.00;;
11427;SDS011;5770;44.504;11.346;2023-03-01T05:58:06;19.33;;;16.63;;
11427;SDS011;5770;44.504;11.346;2023-03-01T06:00:34;19.10;;;16.55;;
11427;SDS011;5770;44.504;11.346;2023-03-01T06:03:01;18.58;;;16.52;;
11427;SDS011;5770;44.504;11.346;2023-03-01T06:05:30;21.00;;;16.33;;
11427;SDS011;5770;44.504;11.346;2023-03-01T06:07:58;20.30;;;16.40;;
11427;SDS011;5770;44.504;11.346;2023-03-01T06:10:25;18.55;;;15.77;;
11427;SDS011;5770;44.504;11.346;2023-03-01T06:12:52;19.70;;;16.08;;
11427;SDS011;5770;44.504;11.346;2023-03-01T06:15:20;19.38;;;15.82;;
11427;SDS011;5770;44.504;11.346;2023-03-01T06:17:47;20.05;;;16.10;;
11427;SDS011;5770;44.504;11.346;2023-03-01T06:20:15;19.65;;;16.60;;
11427;SDS011;5770;44.504;11.346;2023-03-01T06:22:44;20.27;;;16.50;;
11427;SDS011;5770;44.504;11.346;2023-03-01T06:25:13;19.38;;;16.20;;
11427;SDS011;5770;44.504;11.346;2023-03-01T06:27:41;18.70;;;15.82;;
11427;SDS011;5770;44.504;11.346;2023-03-01T06:30:09;18.33;;;16.13;;
11427;SDS011;5770;44.504;11.346;2023-03-01T06:32:37;20.17;;;15.45;;
11427;SDS011;5770;44.504;11.346;2023-03-01T06:35:07;18.02;;;15.68;;
11427;SDS011;5770;44.504;11.346;2023-03-01T06:37:35;17.73;;;15.93;;
11427;SDS011;5770;44.504;11.346;2023-03-01T06:40:04;17.90;;;15.88;;
11427;SDS011;5770;44.504;11.346;2023-03-01T06:42:33;18.15;;;16.25;;
11427;SDS011;5770;44.504;11.346;2023-03-01T06:45:01;18.10;;;15.95;;
11427;SDS011;5770;44.504;11.346;2023-03-01T06:47:28;19.13;;;16.70;;
11427;SDS011;5770;44.504;11.346;2023-03-01T06:49:55;17.63;;;15.73;;
11427;SDS011;5770;44.504;11.346;2023-03-01T06:52:22;20.17;;;16.80;;
11427;SDS011;5770;44.504;11.346;2023-03-01T06:54:49;19.75;;;16.30;;
11427;SDS011;5770;44.504;11.346;2023-03-01T06:57:18;17.23;;;15.40;;
11427;SDS011;5770;44.504;11.346;2023-03-01T06:59:46;20.58;;;16.55;;
11427;SDS011;5770;44.504;11.346;2023-03-01T07:02:13;18.52;;;16.23;;
11427;SDS011;5770;44.504;11.346;2023-03-01T07:04:41;17.60;;;15.70;;
11427;SDS011;5770;44.504;11.346;2023-03-01T07:07:08;18.17;;;16.00;;
11427;SDS011;5770;44.504;11.346;2023-03-01T07:09:35;18.85;;;16.60;;
11427;SDS011;5770;44.504;11.346;2023-03-01T07:12:03;17.92;;;15.90;;
11427;SDS011;5770;44.504;11.346;2023-03-01T07:14:31;22.23;;;17.15;;
11427;SDS011;5770;44.504;11.346;2023-03-01T07:16:59;19.38;;;16.45;;
11427;SDS011;5770;44.504;11.346;2023-03-01T07:19:26;18.75;;;16.77;;
11427;SDS011;5770;44.504;11.346;2023-03-01T07:21:53;17.20;;;15.38;;
11427;SDS011;5770;44.504;11.346;2023-03-01T07:24:21;20.75;;;17.05;;
11427;SDS011;5770;44.504;11.346;2023-03-01T07:26:48;18.52;;;16.58;;
11427;SDS011;5770;44.504;11.346;2023-03-01T07:29:15;19.02;;;16.50;;
11427;SDS011;5770;44.504;11.346;2023-03-01T07:31:44;17.88;;;15.85;;
11427;SDS011;5770;44.504;11.346;2023-03-01T07:34:11;19.23;;;15.98;;
11427;SDS011;5770;44.504;11.346;2023-03-01T07:36:38;18.42;;;16.10;;
11427;SDS011;5770;44.504;11.346;2023-03-01T07:39:08;23.75;;;16.67;;
11427;SDS011;5770;44.504;11.346;2023-03-01T07:41:36;19.95;;;17.05;;
11427;SDS011;5770;44.504;11.346;2023-03-01T07:44:03;23.50;;;17.65;;
11427;SDS011;5770;44.504;11.346;2023-03-01T07:46:30;19.60;;;16.25;;
11427;SDS011;5770;44.504;11.346;2023-03-01T07:48:59;22.90;;;17.50;;
11427;SDS011;5770;44.504;11.346;2023-03-01T07:51:26;21.92;;;18.15;;
11427;SDS011;5770;44.504;11.346;2023-03-01T07:53:53;21.25;;;18.17;;
11427;SDS011;5770;44.504;11.346;2023-03-01T07:56:21;25.13;;;18.88;;
11427;SDS011;5770;44.504;11.346;2023-03-01T07:58:48;25.45;;;19.83;;
11427;SDS011;5770;44.504;11.346;2023-03-01T08:01:16;22.58;;;19.98;;
11427;SDS011;5770;44.504;11.346;2023-03-01T08:03:43;25.10;;;21.20;;
11427;SDS011;5770;44.504;11.346;2023-03-01T08:06:13;24.40;;;21.73;;
11427;SDS011;5770;44.504;11.346;2023-03-01T08:08:41;27.15;;;22.98;;
11427;SDS011;5770;44.504;11.346;2023-03-01T08:11:10;26.67;;;22.85;;
11427;SDS011;5770;44.504;11.346;2023-03-01T08:13:37;26.52;;;23.60;;
11427;SDS011;5770;44.504;11.346;2023-03-01T08:16:06;28.30;;;23.73;;
11427;SDS011;5770;44.504;11.346;2023-03-01T08:18:33;28.23;;;24.70;;
11427;SDS011;5770;44.504;11.346;2023-03-01T08:21:01;27.27;;;24.13;;
11427;SDS011;5770;44.504;11.346;2023-03-01T08:23:30;27.20;;;23.75;;
11427;SDS011;5770;44.504;11.346;2023-03-01T08:26:03;29.98;;;24.25;;
11427;SDS011;5770;44.504;11.346;2023-03-01T08:28:31;27.85;;;24.05;;
11427;SDS011;5770;44.504;11.346;2023-03-01T08:30:59;26.75;;;23.85;;
11427;SDS011;5770;44.504;11.346;2023-03-01T08:33:26;28.67;;;23.77;;
11427;SDS011;5770;44.504;11.346;2023-03-01T08:36:01;27.45;;;24.33;;
11427;SDS011;5770;44.504;11.346;2023-03-01T08:38:30;26.98;;;24.00;;
11427;SDS011;5770;44.504;11.346;2023-03-01T08:40:58;30.35;;;23.85;;
11427;SDS011;5770;44.504;11.346;2023-03-01T08:43:26;26.77;;;22.55;;
11427;SDS011;5770;44.504;11.346;2023-03-01T08:45:53;27.58;;;24.58;;
11427;SDS011;5770;44.504;11.346;2023-03-01T08:48:20;27.77;;;23.75;;
11427;SDS011;5770;44.504;11.346;2023-03-01T08:50:47;26.88;;;23.58;;
11427;SDS011;5770;44.504;11.346;2023-03-01T08:53:14;27.83;;;23.70;;
11427;SDS011;5770;44.504;11.346;2023-03-01T08:55:43;31.55;;;24.08;;
11427;SDS011;5770;44.504;11.346;2023-03-01T08:58:10;31.85;;;23.25;;
11427;SDS011;5770;44.504;11.346;2023-03-01T09:00:37;28.90;;;23.23;;
11427;SDS011;5770;44.504;11.346;2023-03-01T09:03:05;26.45;;;22.73;;
11427;SDS011;5770;44.504;11.346;2023-03-01T09:05:32;25.35;;;22.55;;
11427;SDS011;5770;44.504;11.346;2023-03-01T09:08:01;28.00;;;22.75;;
11427;SDS011;5770;44.504;11.346;2023-03-01T09:10:28;25.38;;;21.73;;
11427;SDS011;5770;44.504;11.346;2023-03-01T09:12:56;24.33;;;21.75;;
11427;SDS011;5770;44.504;11.346;2023-03-01T09:15:25;27.25;;;20.75;;
11427;SDS011;5770;44.504;11.346;2023-03-01T09:17:52;23.63;;;20.23;;
11427;SDS011;5770;44.504;11.346;2023-03-01T09:20:19;24.38;;;21.08;;
11427;SDS011;5770;44.504;11.346;2023-03-01T09:22:46;23.20;;;20.70;;
11427;SDS011;5770;44.504;11.346;2023-03-01T09:25:13;25.15;;;20.75;;
11427;SDS011;5770;44.504;11.346;2023-03-01T09:27:40;23.08;;;20.58;;
11427;SDS011;5770;44.504;11.346;2023-03-01T09:30:10;26.88;;;20.60;;
11427;SDS011;5770;44.504;11.346;2023-03-01T09:32:37;23.45;;;19.60;;
11427;SDS011;5770;44.504;11.346;2023-03-01T09:35:07;22.33;;;20.02;;
11427;SDS011;5770;44.504;11.346;2023-03-01T09:37:35;24.15;;;19.30;;
11427;SDS011;5770;44.504;11.346;2023-03-01T09:40:04;21.02;;;18.33;;
11427;SDS011;5770;44.504;11.346;2023-03-01T09:42:32;20.20;;;18.20;;
11427;SDS011;5770;44.504;11.346;2023-03-01T09:45:02;20.70;;;18.08;;
11427;SDS011;5770;44.504;11.346;2023-03-01T09:47:32;19.88;;;17.88;;
11427;SDS011;5770;44.504;11.346;2023-03-01T09:50:02;18.92;;;16.70;;
11427;SDS011;5770;44.504;11.346;2023-03-01T09:52:34;20.77;;;17.83;;
11427;SDS011;5770;44.504;11.346;2023-03-01T09:55:05;20.52;;;17.20;;
11427;SDS011;5770;44.504;11.346;2023-03-01T09:57:36;19.45;;;16.90;;
11427;SDS011;5770;44.504;11.346;2023-03-01T10:00:15;18.20;;;16.30;;
11427;SDS011;5770;44.504;11.346;2023-03-01T10:02:59;18.55;;;16.58;;
11427;SDS011;5770;44.504;11.346;2023-03-01T10:05:33;18.55;;;15.52;;
11427;SDS011;5770;44.504;11.346;2023-03-01T10:08:05;17.55;;;15.65;;
11427;SDS011;5770;44.504;11.346;2023-03-01T10:10:46;19.52;;;16.70;;
11427;SDS011;5770;44.504;11.346;2023-03-01T10:13:15;20.67;;;16.50;;
11427;SDS011;5770;44.504;11.346;2023-03-01T10:15:47;18.25;;;15.93;;
11427;SDS011;5770;44.504;11.346;2023-03-01T10:18:22;20.17;;;16.45;;
11427;SDS011;5770;44.504;11.346;2023-03-01T10:20:52;22.52;;;17.25;;
11427;SDS011;5770;44.504;11.346;2023-03-01T10:23:22;17.17;;;15.38;;
11427;SDS011;5770;44.504;11.346;2023-03-01T10:25:54;20.58;;;15.50;;
11427;SDS011;5770;44.504;11.346;2023-03-01T10:28:25;18.42;;;16.30;;
11427;SDS011;5770;44.504;11.346;2023-03-01T10:30:52;24.08;;;15.48;;
11427;SDS011;5770;44.504;11.346;2023-03-01T10:33:20;21.58;;;15.60;;
11427;SDS011;5770;44.504;11.346;2023-03-01T10:36:01;18.38;;;15.48;;
11427;SDS011;5770;44.504;11.346;2023-03-01T10:38:30;22.45;;;16.40;;
11427;SDS011;5770;44.504;11.346;2023-03-01T10:40:58;18.58;;;15.25;;
11427;SDS011;5770;44.504;11.346;2023-03-01T10:43:32;17.65;;;15.75;;
11427;SDS011;5770;44.504;11.346;2023-03-01T10:46:21;18.05;;;15.40;;
11427;SDS011;5770;44.504;11.346;2023-03-01T10:48:57;17.95;;;16.08;;
11427;SDS011;5770;44.504;11.346;2023-03-01T10:51:33;24.23;;;15.10;;
11427;SDS011;5770;44.504;11.346;2023-03-01T10:54:00;19.63;;;15.13;;
11427;SDS011;5770;44.504;11.346;2023-03-01T10:56:28;19.45;;;15.43;;
11427;SDS011;5770;44.504;11.346;2023-03-01T10:59:19;17.80;;;14.65;;
11427;SDS011;5770;44.504;11.346;2023-03-01T11:02:00;17.08;;;14.82;;
11427;SDS011;5770;44.504;11.346;2023-03-01T11:04:31;19.48;;;15.60;;
11427;SDS011;5770;44.504;11.346;2023-03-01T11:06:58;18.55;;;15.10;;
11427;SDS011;5770;44.504;11.346;2023-03-01T11:09:26;17.70;;;15.00;;
11427;SDS011;5770;44.504;11.346;2023-03-01T11:12:03;17.15;;;14.75;;
11427;SDS011;5770;44.504;11.346;2023-03-01T11:14:32;17.92;;;14.85;;
11427;SDS011;5770;44.504;11.346;2023-03-01T11:17:01;17.98;;;15.48;;
11427;SDS011;5770;44.504;11.346;2023-03-01T11:19:32;23.38;;;15.13;;
11427;SDS011;5770;44.504;11.346;2023-03-01T11:22:01;16.77;;;14.98;;
11427;SDS011;5770;44.504;11.346;2023-03-01T11:24:33;18.20;;;14.25;;
11427;SDS011;5770;44.504;11.346;2023-03-01T11:27:08;16.25;;;14.55;;
11427;SDS011;5770;44.504;11.346;2023-03-01T11:29:45;15.52;;;13.90;;
11427;SDS011;5770;44.504;11.346;2023-03-01T11:32:16;16.30;;;14.50;;
11427;SDS011;5770;44.504;11.346;2023-03-01T11:34:47;16.40;;;14.40;;
11427;SDS011;5770;44.504;11.346;2023-03-01T11:37:21;16.25;;;14.55;;
11427;SDS011;5770;44.504;11.346;2023-03-01T11:39:53;16.17;;;14.52;;
11427;SDS011;5770;44.504;11.346;2023-03-01T11:42:28;16.15;;;14.25;;
11427;SDS011;5770;44.504;11.346;2023-03-01T11:45:06;16.95;;;14.73;;
11427;SDS011;5770;44.504;11.346;2023-03-01T11:47:39;16.85;;;14.50;;
11427;SDS011;5770;44.504;11.346;2023-03-01T11:50:14;16.92;;;13.82;;
11427;SDS011;5770;44.504;11.346;2023-03-01T11:52:48;17.73;;;14.68;;
11427;SDS011;5770;44.504;11.346;2023-03-01T11:55:21;16.73;;;14.80;;
11427;SDS011;5770;44.504;11.346;2023-03-01T11:57:59;16.35;;;14.43;;
11427;SDS011;5770;44.504;11.346;2023-03-01T12:03:21;15.50;;;13.90;;
11427;SDS011;5770;44.504;11.346;2023-03-01T12:06:16;15.40;;;13.80;;
11427;SDS011;5770;44.504;11.346;2023-03-01T12:08:49;18.23;;;14.60;;
11427;SDS011;5770;44.504;11.346;2023-03-01T12:11:27;16.48;;;13.88;;
11427;SDS011;5770;44.504;11.346;2023-03-01T12:14:04;18.10;;;14.45;;
11427;SDS011;5770;44.504;11.346;2023-03-01T12:16:52;15.10;;;13.23;;
11427;SDS011;5770;44.504;11.346;2023-03-01T12:19:30;18.30;;;14.43;;
11427;SDS011;5770;44.504;11.346;2023-03-01T12:22:24;16.58;;;14.32;;
11427;SDS011;5770;44.504;11.346;2023-03-01T12:31:15;19.98;;;16.10;;
11427;SDS011;5770;44.504;11.346;2023-03-01T12:34:00;25.50;;;18.17;;
11427;SDS011;5770;44.504;11.346;2023-03-01T12:36:42;20.20;;;16.63;;
11427;SDS011;5770;44.504;11.346;2023-03-01T12:39:32;18.50;;;15.43;;
11427;SDS011;5770;44.504;11.346;2023-03-01T12:42:15;19.85;;;15.32;;
11427;SDS011;5770;44.504;11.346;2023-03-01T12:44:57;16.80;;;13.98;;
11427;SDS011;5770;44.504;11.346;2023-03-01T12:47:50;16.48;;;14.77;;
11427;SDS011;5770;44.504;11.346;2023-03-01T12:50:20;16.00;;;14.38;;
11427;SDS011;5770;44.504;11.346;2023-03-01T12:52:49;18.10;;;15.00;;
11427;SDS011;5770;44.504;11.346;2023-03-01T12:55:23;16.35;;;14.23;;
11427;SDS011;5770;44.504;11.346;2023-03-01T12:58:00;15.77;;;14.07;;
11427;SDS011;5770;44.504;11.346;2023-03-01T13:00:30;17.08;;;14.75;;
11427;SDS011;5770;44.504;11.346;2023-03-01T13:03:00;16.60;;;14.80;;
11427;SDS011;5770;44.504;11.346;2023-03-01T13:05:34;18.17;;;14.70;;
11427;SDS011;5770;44.504;11.346;2023-03-01T13:08:09;16.10;;;14.37;;
11427;SDS011;5770;44.504;11.346;2023-03-01T13:10:49;17.57;;;14.20;;
11427;SDS011;5770;44.504;11.346;2023-03-01T13:13:23;16.03;;;14.37;;
11427;SDS011;5770;44.504;11.346;2023-03-01T13:15:50;16.77;;;14.98;;
11427;SDS011;5770;44.504;11.346;2023-03-01T13:18:28;16.73;;;14.67;;
11427;SDS011;5770;44.504;11.346;2023-03-01T13:20:59;16.30;;;14.33;;
11427;SDS011;5770;44.504;11.346;2023-03-01T13:23:28;16.90;;;14.57;;
11427;SDS011;5770;44.504;11.346;2023-03-01T13:26:02;16.20;;;14.53;;
11427;SDS011;5770;44.504;11.346;2023-03-01T13:34:40;15.93;;;14.23;;
11427;SDS011;5770;44.504;11.346;2023-03-01T13:37:08;16.27;;;14.57;;
11427;SDS011;5770;44.504;11.346;2023-03-01T13:39:39;16.48;;;14.77;;
11427;SDS011;5770;44.504;11.346;2023-03-01T13:44:51;16.15;;;14.48;;
11427;SDS011;5770;44.504;11.346;2023-03-01T13:47:18;16.33;;;14.63;;
11427;SDS011;5770;44.504;11.346;2023-03-01T13:49:47;17.10;;;15.43;;
11427;SDS011;5770;44.504;11.346;2023-03-01T13:52:29;20.23;;;14.93;;
11427;SDS011;5770;44.504;11.346;2023-03-01T13:55:05;17.10;;;15.20;;
11427;SDS011;5770;44.504;11.346;2023-03-01T13:57:33;18.10;;;16.30;;
11427;SDS011;5770;44.504;11.346;2023-03-01T14:00:03;17.60;;;15.68;;
11427;SDS011;5770;44.504;11.346;2023-03-01T14:02:31;18.08;;;15.57;;
11427;SDS011;5770;44.504;11.346;2023-03-01T14:04:59;18.52;;;16.27;;
11427;SDS011;5770;44.504;11.346;2023-03-01T14:07:27;17.67;;;15.85;;
11427;SDS011;5770;44.504;11.346;2023-03-01T14:09:56;17.10;;;15.27;;
11427;SDS011;5770;44.504;11.346;2023-03-01T14:12:32;17.33;;;15.52;;
11427;SDS011;5770;44.504;11.346;2023-03-01T14:15:08;16.50;;;14.80;;
11427;SDS011;5770;44.504;11.346;2023-03-01T14:17:49;17.05;;;15.35;;
11427;SDS011;5770;44.504;11.346;2023-03-01T14:20:25;17.27;;;15.47;;
11427;SDS011;5770;44.504;11.346;2023-03-01T14:22:54;17.70;;;15.70;;
11427;SDS011;5770;44.504;11.346;2023-03-01T14:25:24;17.50;;;15.75;;
11427;SDS011;5770;44.504;11.346;2023-03-01T14:27:54;17.73;;;15.73;;
11427;SDS011;5770;44.504;11.346;2023-03-01T14:30:25;18.27;;;15.50;;
11427;SDS011;5770;44.504;11.346;2023-03-01T14:32:54;18.10;;;16.20;;
11427;SDS011;5770;44.504;11.346;2023-03-01T14:35:23;16.92;;;15.23;;
11427;SDS011;5770;44.504;11.346;2023-03-01T14:37:52;17.47;;;15.60;;
11427;SDS011;5770;44.504;11.346;2023-03-01T14:40:22;19.17;;;15.80;;
11427;SDS011;5770;44.504;11.346;2023-03-01T14:42:50;17.20;;;15.47;;
11427;SDS011;5770;44.504;11.346;2023-03-01T14:45:19;16.38;;;14.77;;
11427;SDS011;5770;44.504;11.346;2023-03-01T14:47:48;17.55;;;15.63;;
11427;SDS011;5770;44.504;11.346;2023-03-01T14:50:19;17.65;;;15.20;;
11427;SDS011;5770;44.504;11.346;2023-03-01T14:52:52;17.50;;;15.73;;
11427;SDS011;5770;44.504;11.346;2023-03-01T14:55:24;15.88;;;14.27;;
11427;SDS011;5770;44.504;11.346;2023-03-01T14:57:55;16.85;;;15.13;;